createdAt,value
2017-04-08T00:06:03.517Z,1014.3
2017-04-08T00:16:14.099Z,1014.5
2017-04-08T00:26:24.755Z,1014.3
2017-04-08T00:36:35.463Z,1014.3
2017-04-08T00:46:46.342Z,1014.3
2017-04-08T00:56:56.768Z,1014.3
2017-04-08T01:07:07.444Z,1014.3
2017-04-08T01:17:18.142Z,1014.1
2017-04-08T01:27:28.805Z,1014.2
2017-04-08T01:37:39.500Z,1014
2017-04-08T01:47:50.226Z,1014
2017-04-08T01:58:00.968Z,1014.1
2017-04-08T02:08:11.733Z,1014
2017-04-08T02:18:22.483Z,1014
2017-04-08T02:28:33.270Z,1014.2
2017-04-08T02:38:44.094Z,1014
2017-04-08T02:48:54.963Z,1014.2
2017-04-08T02:59:05.798Z,1014.1
2017-04-08T03:09:16.634Z,1014.1
2017-04-08T03:19:27.462Z,1014.1
2017-04-08T03:29:38.326Z,1014
2017-04-08T03:39:49.192Z,1014.1
2017-04-08T03:50:00.061Z,1014.1
2017-04-08T04:00:10.962Z,1014.1
2017-04-08T04:10:21.792Z,1014.2
2017-04-08T04:20:32.662Z,1014.1
2017-04-08T04:30:43.588Z,1014.2
2017-04-08T04:40:54.505Z,1014.3
2017-04-08T04:51:05.448Z,1014.3
2017-04-08T05:01:16.397Z,1014.5
2017-04-08T05:11:27.410Z,1014.6
2017-04-08T05:21:38.362Z,1014.6
2017-04-08T05:31:49.298Z,1014.7
2017-04-08T05:42:00.198Z,1014.8
2017-04-08T05:52:11.015Z,1014.9
2017-04-08T06:02:21.817Z,1014.8
2017-04-08T06:12:32.625Z,1014.8
2017-04-08T06:22:43.355Z,1014.9
2017-04-08T06:32:54.064Z,1015
2017-04-08T06:43:04.659Z,1015
2017-04-08T06:53:15.180Z,1015
2017-04-08T07:03:25.649Z,1015
2017-04-08T07:13:36.007Z,1015.1
2017-04-08T07:23:46.259Z,1015.2
2017-04-08T07:33:56.406Z,1015.3
2017-04-08T07:44:06.513Z,1015.3
2017-04-08T07:54:16.538Z,1015.4
2017-04-08T08:04:26.515Z,1015.4
2017-04-08T08:14:36.380Z,1015.4
2017-04-08T08:24:46.068Z,1015.5
2017-04-08T08:34:55.733Z,1015.4
2017-04-08T08:45:05.308Z,1015.6
2017-04-08T08:55:14.825Z,1015.6
2017-04-08T09:05:24.334Z,1015.6
2017-04-08T09:15:33.789Z,1015.5
2017-04-08T09:25:43.163Z,1015.6
2017-04-08T09:35:52.584Z,1015.6
2017-04-08T09:46:01.933Z,1015.6
2017-04-08T09:56:11.171Z,1015.5
2017-04-08T10:06:20.419Z,1015.6
2017-04-08T10:16:29.654Z,1015.6
2017-04-08T10:26:38.876Z,1015.5
2017-04-08T10:36:48.059Z,1015.5
2017-04-08T10:46:57.177Z,1015.5
2017-04-08T10:57:06.284Z,1015.4
2017-04-08T11:07:15.191Z,1015.3
2017-04-08T11:17:24.191Z,1015.2
2017-04-08T11:27:33.237Z,1015.2
2017-04-08T11:37:42.396Z,1015.2
2017-04-08T11:47:51.596Z,1015.2
2017-04-08T11:58:00.761Z,1015.2
2017-04-08T12:08:09.844Z,1015.2
2017-04-08T12:18:19.007Z,1015.2
2017-04-08T12:38:37.078Z,1015
2017-04-08T12:48:45.985Z,1014.9
2017-04-08T12:58:54.932Z,1014.9
2017-04-08T13:09:03.939Z,1014.8
2017-04-08T13:19:13.034Z,1014.8
2017-04-08T13:29:22.121Z,1014.8
2017-04-08T13:39:31.032Z,1014.5
2017-04-08T13:49:40.029Z,1014.6
2017-04-08T13:59:49.054Z,1014.5
2017-04-08T14:09:58.156Z,1014.3
2017-04-08T14:20:07.226Z,1014.3
2017-04-08T14:30:16.261Z,1014.3
2017-04-08T14:40:25.385Z,1014.1
2017-04-08T14:50:34.474Z,1014.2
2017-04-08T15:00:43.644Z,1014.2
2017-04-08T15:10:52.843Z,1014.2
2017-04-08T15:21:02.001Z,1014.1
2017-04-08T15:31:10.962Z,1014.1
2017-04-08T15:41:19.701Z,1014.1
2017-04-08T15:51:32.637Z,1014
2017-04-08T16:01:37.382Z,1014
2017-04-08T16:11:46.686Z,1014
2017-04-08T16:21:56.221Z,1014.1
2017-04-08T16:32:05.984Z,1014
2017-04-08T16:42:15.474Z,1013.9
2017-04-08T16:52:24.957Z,1013.9
2017-04-08T17:02:34.514Z,1013.8
2017-04-08T17:12:44.250Z,1013.7
2017-04-08T17:22:54.081Z,1013.8
2017-04-08T17:33:04.058Z,1013.7
2017-04-08T17:43:14.136Z,1013.9
2017-04-08T17:53:24.298Z,1013.8
2017-04-08T18:03:34.598Z,1014
2017-04-08T18:13:44.974Z,1013.9
2017-04-08T18:23:55.458Z,1014.1
2017-04-08T18:34:06.044Z,1014.1
2017-04-08T18:44:16.682Z,1014.2
2017-04-08T18:54:27.342Z,1014.2
2017-04-08T19:04:37.990Z,1014.2
2017-04-08T19:14:48.739Z,1014.2
2017-04-08T19:24:59.491Z,1014.4
2017-04-08T19:35:10.234Z,1014.4
2017-04-08T19:45:21.028Z,1014.4
2017-04-08T19:55:31.873Z,1014.4
2017-04-08T20:05:42.719Z,1014.4
2017-04-08T20:15:53.681Z,1014.4
2017-04-08T20:26:04.661Z,1014.4
2017-04-08T20:36:15.648Z,1014.4
2017-04-08T20:46:26.677Z,1014.4
2017-04-08T20:56:37.651Z,1014.4
2017-04-08T21:06:48.647Z,1014.3
2017-04-08T21:16:59.626Z,1014.3
2017-04-08T21:27:10.636Z,1014.4
2017-04-08T21:37:21.623Z,1014.3
2017-04-08T21:47:32.733Z,1014.4
2017-04-08T21:57:43.762Z,1014.4
2017-04-08T22:07:54.877Z,1014.5
2017-04-08T22:18:06.004Z,1014.6
2017-04-08T22:28:17.105Z,1014.5
2017-04-08T22:38:28.225Z,1014.5
2017-04-08T22:48:39.405Z,1014.6
2017-04-08T22:58:50.522Z,1014.5
2017-04-08T23:09:01.697Z,1014.5
2017-04-08T23:19:12.802Z,1014.5
2017-04-08T23:29:23.879Z,1014.3
2017-04-08T23:39:35.029Z,1014.4
2017-04-08T23:49:46.210Z,1014.4
2017-04-08T23:59:57.373Z,1014.4
